CYBB/YBB METAR and TAF weather

Enter ICAO airport designator
Station Type Date Time Source
CYBB METAR 2020/11/27 00:00 UTC NOAA

CYBB 270000Z 24017KT 15SM DRSN FEW100 M27/M30 A2969 RMK AC2 LAST STFD OBS/NXT/271300Z SLP058


Station Type Date Time Source
CYBB Decoded METAR 2020/11/27 00:00 UTC NOAA

Pelly Bay Airport, Canada (CYBB) 68-32N 089-49W
Nov 26, 2020 - 07:00 PM EST / 2020.11.27 0000 UTC
Wind: from the WSW (240 degrees) at 20 MPH (17 KT):0
Visibility: 15 mile(s):0
Sky conditions: mostly clear
Weather: low drifting snow
Temperature: -16 F (-27 C)
Windchill: -43 F (-42 C):2
Dew Point: -22 F (-30 C)
Relative Humidity: 75%
Pressure (altimeter): 29.69 in. Hg (1005 hPa)
ob: CYBB 270000Z 24017KT 15SM DRSN FEW100 M27/M30 A2969 RMK AC2 LAST STFD OBS/NXT/271300Z SLP058
cycle: 0

Station Type Date Time Source
CYBB TAF 2020/11/26 23:21 UTC NOAA

TAF
AMD TAF
AMD CYBB 262319Z 2623/2624 25015KT P6SM FEW120
TEMPO 2623/2624 5SM IC
RMK NXT FCST WILL BE ISSUED AT 271445Z

Example: see airport list